createdAt,value
2022-09-14T00:01:37.853Z,60.42
2022-09-14T00:04:07.928Z,59.85
2022-09-14T00:06:36.436Z,59.28
2022-09-14T00:09:06.900Z,60.90
2022-09-14T00:11:38.181Z,60.56
2022-09-14T00:14:07.268Z,60.27
2022-09-14T00:16:37.391Z,59.69
2022-09-14T00:19:07.923Z,59.34
2022-09-14T00:21:37.283Z,59.73
2022-09-14T00:24:07.051Z,59.28
2022-09-14T00:26:35.125Z,59.33
2022-09-14T00:29:05.587Z,59.76
2022-09-14T00:31:36.166Z,59.47
2022-09-14T00:34:07.190Z,59.26
2022-09-14T00:36:40.039Z,60.33
2022-09-14T00:39:08.795Z,60.01
2022-09-14T00:41:38.911Z,59.98
2022-09-14T00:44:29.343Z,60.42
2022-09-14T00:46:59.565Z,60.28
2022-09-14T00:49:34.186Z,60.16
2022-09-14T00:52:09.691Z,58.93
2022-09-14T00:54:39.205Z,60.49
2022-09-14T00:57:07.243Z,60.15
2022-09-14T00:59:39.354Z,59.79
2022-09-14T01:02:10.171Z,60.09
2022-09-14T01:04:38.613Z,59.24
2022-09-14T01:07:17.334Z,60.13
2022-09-14T01:09:50.824Z,59.51
2022-09-14T01:12:25.350Z,60.16
2022-09-14T01:15:03.801Z,60.03
2022-09-14T01:17:40.640Z,60.07
2022-09-14T01:20:20.593Z,60.26
2022-09-14T01:22:52.970Z,59.09
2022-09-14T01:25:46.658Z,60.23
2022-09-14T01:28:24.026Z,60.27
2022-09-14T01:30:54.742Z,59.93
2022-09-14T01:33:28.772Z,59.60
2022-09-14T01:35:59.670Z,59.65
2022-09-14T01:38:32.663Z,59.54
2022-09-14T01:41:04.767Z,58.60
2022-09-14T01:43:37.806Z,59.72
2022-09-14T01:46:09.988Z,60.22
2022-09-14T01:48:46.554Z,59.62
2022-09-14T01:51:18.457Z,58.27
2022-09-14T01:53:51.201Z,59.81
2022-09-14T01:56:24.164Z,60.12
2022-09-14T01:59:01.247Z,60.90
2022-09-14T02:01:34.097Z,60.69
2022-09-14T02:04:08.523Z,61.00
2022-09-14T02:06:40.211Z,61.11
2022-09-14T02:09:11.834Z,61.93
2022-09-14T02:11:40.147Z,61.84
2022-09-14T02:14:09.813Z,61.19
2022-09-14T02:16:37.985Z,60.03
2022-09-14T02:19:06.360Z,59.96
2022-09-14T02:21:34.594Z,60.34
2022-09-14T02:24:03.754Z,60.23
2022-09-14T02:26:32.000Z,59.24
2022-09-14T02:29:00.150Z,60.30
2022-09-14T02:31:45.574Z,61.19
2022-09-14T02:34:23.671Z,59.62
2022-09-14T02:37:01.694Z,60.20
2022-09-14T02:39:40.312Z,60.30
2022-09-14T02:42:18.831Z,60.65
2022-09-14T02:44:57.069Z,59.84
2022-09-14T02:47:31.593Z,58.61
2022-09-14T02:50:04.606Z,59.82
2022-09-14T02:52:39.930Z,59.04
2022-09-14T02:55:13.199Z,58.99
2022-09-14T02:58:00.432Z,58.66
2022-09-14T03:00:29.513Z,59.22
2022-09-14T03:02:59.365Z,60.14
2022-09-14T03:05:27.879Z,59.39
2022-09-14T03:07:55.862Z,58.15
2022-09-14T03:10:23.847Z,58.33
2022-09-14T03:12:51.776Z,60.57
2022-09-14T03:15:19.934Z,63.51
2022-09-14T03:17:48.891Z,63.13
2022-09-14T03:20:20.645Z,60.00
2022-09-14T03:22:48.758Z,60.25
2022-09-14T03:25:18.985Z,59.94
2022-09-14T03:27:51.461Z,60.13
2022-09-14T03:30:19.732Z,58.84
2022-09-14T03:32:48.096Z,58.34
2022-09-14T03:35:17.970Z,59.99
2022-09-14T03:37:47.159Z,58.26
2022-09-14T03:40:21.335Z,60.28
2022-09-14T03:42:51.886Z,60.05
2022-09-14T03:45:20.972Z,59.74
2022-09-14T03:47:49.342Z,59.13
2022-09-14T03:50:20.097Z,58.34
2022-09-14T03:52:48.671Z,60.29
2022-09-14T03:55:16.735Z,59.89
2022-09-14T03:57:44.741Z,58.60
2022-09-14T04:00:13.202Z,59.93
2022-09-14T04:02:42.160Z,58.92
2022-09-14T04:05:10.445Z,59.91
2022-09-14T04:07:39.868Z,60.15
2022-09-14T04:10:08.761Z,58.43
2022-09-14T04:12:37.508Z,60.60
2022-09-14T04:15:06.330Z,59.11
2022-09-14T04:17:34.621Z,60.93
2022-09-14T04:20:02.799Z,61.52
2022-09-14T04:22:30.772Z,61.72
2022-09-14T04:25:01.883Z,60.94
2022-09-14T04:27:31.244Z,61.60
2022-09-14T04:29:59.242Z,63.14
2022-09-14T04:32:29.720Z,63.58
2022-09-14T04:35:01.658Z,62.18
2022-09-14T04:37:32.074Z,61.89
2022-09-14T04:40:01.640Z,62.50
2022-09-14T04:42:30.936Z,62.86
2022-09-14T04:44:58.945Z,62.74
2022-09-14T04:47:26.907Z,62.71
2022-09-14T04:49:54.879Z,59.91
2022-09-14T04:52:23.459Z,59.57
2022-09-14T04:54:51.498Z,59.92
2022-09-14T04:57:20.819Z,59.57
2022-09-14T04:59:48.825Z,59.53
2022-09-14T05:02:16.953Z,59.14
2022-09-14T05:04:44.987Z,59.01
2022-09-14T05:07:13.171Z,59.48
2022-09-14T05:09:41.109Z,60.71
2022-09-14T05:12:09.332Z,57.30
2022-09-14T05:14:38.678Z,58.07
2022-09-14T05:17:06.762Z,59.18
2022-09-14T05:19:34.793Z,58.43
2022-09-14T05:22:02.722Z,58.17
2022-09-14T05:24:30.712Z,58.09
2022-09-14T05:27:01.632Z,59.60
2022-09-14T05:29:31.925Z,58.37
2022-09-14T05:32:02.665Z,57.08
2022-09-14T05:34:30.665Z,57.08
2022-09-14T05:36:58.716Z,56.78
2022-09-14T05:39:29.377Z,56.47
2022-09-14T05:42:11.233Z,56.46
2022-09-14T05:44:39.256Z,56.47
2022-09-14T05:47:08.645Z,56.99
2022-09-14T05:49:36.650Z,58.33
2022-09-14T05:52:05.281Z,58.48
2022-09-14T05:54:33.342Z,59.06
2022-09-14T05:57:01.262Z,59.04
2022-09-14T05:59:31.686Z,58.77
2022-09-14T06:02:00.654Z,59.27
2022-09-14T06:04:30.071Z,58.90
2022-09-14T06:07:17.511Z,60.10
2022-09-14T06:09:46.348Z,59.69
2022-09-14T06:12:14.797Z,59.49
2022-09-14T06:14:42.735Z,59.38
2022-09-14T06:17:10.669Z,59.29
2022-09-14T06:19:41.303Z,59.70
2022-09-14T06:22:09.351Z,59.50
2022-09-14T06:24:37.452Z,59.93
2022-09-14T06:27:06.768Z,59.54
2022-09-14T06:29:34.772Z,59.63
2022-09-14T06:32:05.531Z,59.48
2022-09-14T06:34:33.572Z,59.72
2022-09-14T06:37:02.936Z,59.73
2022-09-14T06:39:31.001Z,59.70
2022-09-14T06:41:58.903Z,59.74
2022-09-14T06:44:30.062Z,58.86
2022-09-14T06:46:58.417Z,58.42
2022-09-14T06:49:26.683Z,58.83
2022-09-14T06:51:56.617Z,59.39
2022-09-14T06:54:26.031Z,59.66
2022-09-14T06:56:54.109Z,58.63
2022-09-14T06:59:22.154Z,58.76
2022-09-14T07:01:50.826Z,58.53
2022-09-14T07:04:19.816Z,57.75
2022-09-14T07:06:49.639Z,58.14
2022-09-14T07:09:19.031Z,57.56
2022-09-14T07:11:49.203Z,58.75
2022-09-14T07:14:17.242Z,58.66
2022-09-14T07:16:45.588Z,57.28
2022-09-14T07:19:16.553Z,54.93
2022-09-14T07:21:46.792Z,57.07
2022-09-14T07:24:15.379Z,54.43
2022-09-14T07:26:43.972Z,56.66
2022-09-14T07:29:15.744Z,57.20
2022-09-14T07:31:45.928Z,58.12
2022-09-14T07:34:14.009Z,58.79
2022-09-14T07:36:43.008Z,58.86
2022-09-14T07:39:14.346Z,56.46
2022-09-14T07:41:43.466Z,58.14
2022-09-14T07:44:16.434Z,58.57
2022-09-14T07:46:46.142Z,57.51
2022-09-14T07:49:15.586Z,56.93
2022-09-14T07:51:43.784Z,58.77
2022-09-14T07:54:13.943Z,59.12
2022-09-14T07:56:43.425Z,58.58
2022-09-14T07:59:34.608Z,58.79
2022-09-14T08:02:02.515Z,58.33
2022-09-14T08:04:30.670Z,57.82
2022-09-14T08:06:59.123Z,59.29
2022-09-14T08:09:27.579Z,59.25
2022-09-14T08:11:55.471Z,58.99
2022-09-14T08:14:23.551Z,59.17
2022-09-14T08:16:51.570Z,58.90
2022-09-14T08:19:21.436Z,58.48
2022-09-14T08:21:49.751Z,58.28
2022-09-14T08:24:19.043Z,58.65
2022-09-14T08:26:47.803Z,58.63
2022-09-14T08:29:16.755Z,59.25
2022-09-14T08:31:45.851Z,58.67
2022-09-14T08:34:15.085Z,58.95
2022-09-14T08:36:45.814Z,58.78
2022-09-14T08:39:15.646Z,57.51
2022-09-14T08:41:51.567Z,58.78
2022-09-14T08:44:24.798Z,58.34
2022-09-14T08:46:57.029Z,57.83
2022-09-14T08:49:37.786Z,57.90
2022-09-14T08:52:10.985Z,57.28
2022-09-14T08:54:39.210Z,54.68
2022-09-14T08:57:13.534Z,51.43
2022-09-14T08:59:53.234Z,53.61
2022-09-14T09:02:45.116Z,53.43
2022-09-14T09:05:30.505Z,52.48
2022-09-14T09:08:06.324Z,55.15
2022-09-14T09:10:36.455Z,55.01
2022-09-14T09:13:07.831Z,52.45
2022-09-14T09:15:41.231Z,51.79
2022-09-14T09:18:13.610Z,52.50
2022-09-14T09:20:47.265Z,53.95
2022-09-14T09:23:19.295Z,55.92
2022-09-14T09:25:56.968Z,56.39
2022-09-14T09:28:27.432Z,56.31
2022-09-14T09:30:58.572Z,56.25
2022-09-14T09:33:38.256Z,55.54
2022-09-14T09:36:18.779Z,55.89
2022-09-14T09:38:48.175Z,50.48
2022-09-14T09:41:20.817Z,49.61
2022-09-14T09:44:00.971Z,48.37
2022-09-14T09:46:31.093Z,52.18
2022-09-14T09:49:00.445Z,47.85
2022-09-14T09:51:31.088Z,52.03
2022-09-14T09:54:09.460Z,49.27
2022-09-14T09:56:40.671Z,50.96
2022-09-14T09:59:24.827Z,53.35
2022-09-14T10:01:58.334Z,49.61
2022-09-14T10:04:29.947Z,50.46
2022-09-14T10:06:58.828Z,48.66
2022-09-14T10:09:29.610Z,49.14
2022-09-14T10:12:00.308Z,51.37
2022-09-14T10:14:32.131Z,50.81
2022-09-14T10:17:08.566Z,51.57
2022-09-14T10:19:37.730Z,49.33
2022-09-14T10:22:20.945Z,48.12
2022-09-14T10:24:59.883Z,49.41
2022-09-14T10:27:39.654Z,48.29
2022-09-14T10:30:14.982Z,49.11
2022-09-14T10:32:50.055Z,50.21
2022-09-14T10:35:18.655Z,52.04
2022-09-14T10:38:00.284Z,45.05
2022-09-14T10:40:36.861Z,49.12
2022-09-14T10:43:15.478Z,49.03
2022-09-14T10:45:50.945Z,49.85
2022-09-14T10:48:44.607Z,51.50
2022-09-14T10:51:30.564Z,54.41
2022-09-14T10:54:09.636Z,52.10
2022-09-14T10:56:59.717Z,53.42
2022-09-14T10:59:33.665Z,52.49
2022-09-14T11:02:32.635Z,52.15
2022-09-14T11:05:11.950Z,50.61
2022-09-14T11:07:59.420Z,51.08
2022-09-14T11:10:34.593Z,52.72
2022-09-14T11:13:37.484Z,53.30
2022-09-14T11:16:20.333Z,52.81
2022-09-14T11:18:58.385Z,52.99
2022-09-14T11:21:37.775Z,51.65
2022-09-14T11:24:14.066Z,53.84
2022-09-14T11:26:45.859Z,54.00
2022-09-14T11:29:23.829Z,51.35
2022-09-14T11:32:19.743Z,51.22
2022-09-14T11:34:55.006Z,51.81
2022-09-14T11:37:31.198Z,52.00
2022-09-14T11:40:07.979Z,52.96
2022-09-14T11:42:42.000Z,53.04
2022-09-14T11:45:20.052Z,53.02
2022-09-14T11:47:58.382Z,53.25
2022-09-14T11:50:29.701Z,52.01
2022-09-14T11:53:05.881Z,52.84
2022-09-14T11:55:34.963Z,52.91
2022-09-14T11:58:07.292Z,52.22
2022-09-14T12:01:02.537Z,51.90
2022-09-14T12:04:02.929Z,51.93
2022-09-14T12:06:51.082Z,52.81
2022-09-14T12:09:53.719Z,52.37
2022-09-14T12:12:46.507Z,52.83
2022-09-14T12:15:23.071Z,51.27
2022-09-14T12:17:55.179Z,52.02
2022-09-14T12:20:40.454Z,54.91
2022-09-14T12:23:30.320Z,52.21
2022-09-14T12:26:27.024Z,52.57
2022-09-14T12:28:58.440Z,53.06
2022-09-14T12:32:01.097Z,53.95
2022-09-14T12:34:38.024Z,54.11
2022-09-14T12:37:31.986Z,55.86
2022-09-14T12:40:34.030Z,53.00
2022-09-14T12:43:53.173Z,53.64
2022-09-14T12:46:39.761Z,53.51
2022-09-14T12:49:35.745Z,53.41
2022-09-14T12:52:33.942Z,50.81
2022-09-14T12:55:17.188Z,52.53
2022-09-14T12:57:55.330Z,50.23
2022-09-14T13:00:28.272Z,50.58
2022-09-14T13:03:28.940Z,48.82
2022-09-14T13:06:03.927Z,49.61
2022-09-14T13:08:34.173Z,50.66
2022-09-14T13:11:02.448Z,48.58
2022-09-14T13:13:33.875Z,49.78
2022-09-14T13:16:04.298Z,46.97
2022-09-14T13:18:36.994Z,48.45
2022-09-14T13:21:19.925Z,47.52
2022-09-14T13:23:48.468Z,46.32
2022-09-14T13:26:20.657Z,48.55
2022-09-14T13:28:51.379Z,47.12
2022-09-14T13:31:24.634Z,47.34
2022-09-14T13:33:55.322Z,47.13
2022-09-14T13:36:27.767Z,46.94
2022-09-14T13:39:01.628Z,50.49
2022-09-14T13:41:31.012Z,48.87
2022-09-14T13:44:17.743Z,48.62
2022-09-14T13:46:55.420Z,52.04
2022-09-14T13:49:23.904Z,51.72
2022-09-14T13:51:53.339Z,51.23
2022-09-14T13:54:30.029Z,48.69
2022-09-14T13:57:17.862Z,49.01
2022-09-14T14:00:21.718Z,52.46
2022-09-14T14:02:52.794Z,48.09
2022-09-14T14:05:23.663Z,50.48
2022-09-14T14:07:57.867Z,48.89
2022-09-14T14:10:34.041Z,49.68
2022-09-14T14:13:03.622Z,51.24
2022-09-14T14:15:43.008Z,47.07
2022-09-14T14:18:42.715Z,46.67
2022-09-14T14:21:17.415Z,48.44
2022-09-14T14:24:17.503Z,49.37
2022-09-14T14:27:00.833Z,48.30
2022-09-14T14:29:44.676Z,48.61
2022-09-14T14:32:16.188Z,53.20
2022-09-14T14:34:56.978Z,48.79
2022-09-14T14:37:34.599Z,51.02
2022-09-14T14:40:12.814Z,46.76
2022-09-14T14:43:00.075Z,47.29
2022-09-14T14:45:36.404Z,47.91
2022-09-14T14:48:34.731Z,50.38
2022-09-14T14:51:11.772Z,47.35
2022-09-14T14:53:46.106Z,49.83
2022-09-14T14:56:18.564Z,50.41
2022-09-14T14:58:50.228Z,49.17
2022-09-14T15:01:22.084Z,47.94
2022-09-14T15:03:50.228Z,50.34
2022-09-14T15:06:23.098Z,48.67
2022-09-14T15:08:54.929Z,47.28
2022-09-14T15:11:24.766Z,47.63
2022-09-14T15:13:54.126Z,47.59
2022-09-14T15:16:22.206Z,50.87
2022-09-14T15:18:50.501Z,51.18
2022-09-14T15:21:18.556Z,50.92
2022-09-14T15:23:47.647Z,51.47
2022-09-14T15:26:15.923Z,50.73
2022-09-14T15:28:45.923Z,48.39
2022-09-14T15:31:14.304Z,49.77
2022-09-14T15:33:43.027Z,50.74
2022-09-14T15:36:14.381Z,52.22
2022-09-14T15:38:42.367Z,51.89
2022-09-14T15:41:12.738Z,52.33
2022-09-14T15:43:41.809Z,51.71
2022-09-14T15:46:11.383Z,53.96
2022-09-14T15:48:41.432Z,53.78
2022-09-14T15:51:12.041Z,54.85
2022-09-14T15:53:40.310Z,55.43
2022-09-14T15:56:11.432Z,56.96
2022-09-14T15:58:39.744Z,58.24
2022-09-14T16:01:13.668Z,57.91
2022-09-14T16:03:43.444Z,57.50
2022-09-14T16:06:12.801Z,57.26
2022-09-14T16:08:41.832Z,56.48
2022-09-14T16:11:10.230Z,56.07
2022-09-14T16:13:38.309Z,54.15
2022-09-14T16:16:09.412Z,55.34
2022-09-14T16:18:38.199Z,55.78
2022-09-14T16:21:10.553Z,56.37
2022-09-14T16:23:40.938Z,55.33
2022-09-14T16:26:10.444Z,56.50
2022-09-14T16:28:38.821Z,56.83
2022-09-14T16:31:08.942Z,56.27
2022-09-14T16:33:38.690Z,55.48
2022-09-14T16:36:10.530Z,56.63
2022-09-14T16:38:39.072Z,56.64
2022-09-14T16:41:07.414Z,58.08
2022-09-14T16:43:36.112Z,55.64
2022-09-14T16:46:06.185Z,54.86
2022-09-14T16:48:35.696Z,56.70
2022-09-14T16:51:04.174Z,57.52
2022-09-14T16:53:36.690Z,58.03
2022-09-14T16:56:06.867Z,59.62
2022-09-14T16:58:35.478Z,58.44
2022-09-14T17:01:07.990Z,56.86
2022-09-14T17:03:36.805Z,58.17
2022-09-14T17:06:07.254Z,58.06
2022-09-14T17:08:41.803Z,58.67
2022-09-14T17:11:12.989Z,58.28
2022-09-14T17:13:42.809Z,58.08
2022-09-14T17:16:12.914Z,57.84
2022-09-14T17:18:42.572Z,58.37
2022-09-14T17:21:13.780Z,58.31
2022-09-14T17:23:43.738Z,58.06
2022-09-14T17:26:13.575Z,58.29
2022-09-14T17:28:44.488Z,58.48
2022-09-14T17:31:14.640Z,58.15
2022-09-14T17:33:43.016Z,59.13
2022-09-14T17:36:12.191Z,58.59
2022-09-14T17:38:42.176Z,58.30
2022-09-14T17:41:13.985Z,58.20
2022-09-14T17:43:43.466Z,57.47
2022-09-14T17:46:14.322Z,58.10
2022-09-14T17:48:43.897Z,58.26
2022-09-14T17:51:15.425Z,58.22
2022-09-14T17:53:45.826Z,60.30
2022-09-14T17:56:25.207Z,59.68
2022-09-14T17:59:04.967Z,58.63
2022-09-14T18:01:34.866Z,58.88
2022-09-14T18:04:06.300Z,57.70
2022-09-14T18:06:38.514Z,58.69
2022-09-14T18:09:12.074Z,59.38
2022-09-14T18:11:43.527Z,58.02
2022-09-14T18:14:13.271Z,59.21
2022-09-14T18:16:42.187Z,59.52
2022-09-14T18:19:10.529Z,58.61
2022-09-14T18:21:38.587Z,58.78
2022-09-14T18:24:06.892Z,58.05
2022-09-14T18:26:34.863Z,59.63
2022-09-14T18:29:04.500Z,58.95
2022-09-14T18:31:32.679Z,59.54
2022-09-14T18:34:01.631Z,59.43
2022-09-14T18:36:30.940Z,59.19
2022-09-14T18:38:59.335Z,57.85
2022-09-14T18:41:28.925Z,58.64
2022-09-14T18:43:57.011Z,59.14
2022-09-14T18:46:30.035Z,59.40
2022-09-14T18:48:59.609Z,59.06
2022-09-14T18:51:29.315Z,58.89
2022-09-14T18:53:58.266Z,59.44
2022-09-14T18:56:26.758Z,58.61
2022-09-14T18:58:54.810Z,59.02
2022-09-14T19:01:23.377Z,59.65
2022-09-14T19:03:53.858Z,58.92
2022-09-14T19:06:21.962Z,58.74
2022-09-14T19:08:54.368Z,59.73
2022-09-14T19:11:24.443Z,58.40
2022-09-14T19:13:56.818Z,58.04
2022-09-14T19:16:25.399Z,59.26
2022-09-14T19:18:55.054Z,58.85
2022-09-14T19:21:24.979Z,58.63
2022-09-14T19:24:00.673Z,59.39
2022-09-14T19:26:30.712Z,59.25
2022-09-14T19:29:02.609Z,58.69
2022-09-14T19:31:33.703Z,58.78
2022-09-14T19:34:55.678Z,59.07
2022-09-14T19:37:28.938Z,58.39
2022-09-14T19:40:13.831Z,58.77
2022-09-14T19:42:54.126Z,58.49
2022-09-14T19:45:35.576Z,58.84
2022-09-14T19:48:13.480Z,57.57
2022-09-14T19:50:41.709Z,58.63
2022-09-14T19:53:11.014Z,59.37
2022-09-14T19:55:39.175Z,58.31
2022-09-14T19:58:07.218Z,58.13
2022-09-14T20:00:35.990Z,56.88
2022-09-14T20:03:04.177Z,58.49
2022-09-14T20:05:32.289Z,56.78
2022-09-14T20:08:00.246Z,56.79
2022-09-14T20:10:29.703Z,57.21
2022-09-14T20:12:57.660Z,57.80
2022-09-14T20:15:25.949Z,58.57
2022-09-14T20:17:55.928Z,57.58
2022-09-14T20:20:24.344Z,58.37
2022-09-14T20:22:52.266Z,56.88
2022-09-14T20:25:20.583Z,57.74
2022-09-14T20:27:49.962Z,58.36
2022-09-14T20:30:18.270Z,57.91
2022-09-14T20:32:46.732Z,58.83
2022-09-14T20:35:14.779Z,58.33
2022-09-14T20:37:43.743Z,58.20
2022-09-14T20:40:12.446Z,58.88
2022-09-14T20:42:40.475Z,58.70
2022-09-14T20:45:11.147Z,58.93
2022-09-14T20:47:39.626Z,58.16
2022-09-14T20:50:08.129Z,59.73
2022-09-14T20:52:37.068Z,60.59
2022-09-14T20:55:06.257Z,59.71
2022-09-14T20:57:34.265Z,59.86
2022-09-14T21:00:02.637Z,59.71
2022-09-14T21:02:32.457Z,58.73
2022-09-14T21:05:00.758Z,59.23
2022-09-14T21:07:28.836Z,58.56
2022-09-14T21:09:56.972Z,58.88
2022-09-14T21:12:24.988Z,58.71
2022-09-14T21:14:53.028Z,59.47
2022-09-14T21:17:22.124Z,59.74
2022-09-14T21:19:51.664Z,59.37
2022-09-14T21:22:19.731Z,59.41
2022-09-14T21:24:47.715Z,59.80
2022-09-14T21:27:15.635Z,58.59
2022-09-14T21:29:43.572Z,60.29
2022-09-14T21:32:11.556Z,59.73
2022-09-14T21:34:39.684Z,58.10
2022-09-14T21:37:08.970Z,59.00
2022-09-14T21:39:38.063Z,60.04
2022-09-14T21:42:06.868Z,59.67
2022-09-14T21:44:37.751Z,59.25
2022-09-14T21:47:06.085Z,58.22
2022-09-14T21:49:34.497Z,59.95
2022-09-14T21:52:02.998Z,58.01
2022-09-14T21:54:32.456Z,59.25
2022-09-14T21:57:00.408Z,58.40
2022-09-14T21:59:28.398Z,59.63
2022-09-14T22:01:56.396Z,60.18
2022-09-14T22:04:26.194Z,57.81
2022-09-14T22:06:54.442Z,59.50
2022-09-14T22:09:24.974Z,59.37
2022-09-14T22:11:55.053Z,57.97
2022-09-14T22:14:25.922Z,58.23
2022-09-14T22:16:54.329Z,58.61
2022-09-14T22:19:24.043Z,58.01
2022-09-14T22:21:52.180Z,59.17
2022-09-14T22:24:22.144Z,58.64
2022-09-14T22:26:51.178Z,58.54
2022-09-14T22:29:20.577Z,58.35
2022-09-14T22:31:48.913Z,57.57
2022-09-14T22:34:17.915Z,56.76
2022-09-14T22:36:46.362Z,55.42
2022-09-14T22:39:14.715Z,57.49
2022-09-14T22:41:42.736Z,56.58
2022-09-14T22:44:12.959Z,56.61
2022-09-14T22:46:43.207Z,58.06
2022-09-14T22:49:11.386Z,58.80
2022-09-14T22:51:39.426Z,58.16
2022-09-14T22:54:08.276Z,58.62
2022-09-14T22:56:38.232Z,58.05
2022-09-14T22:59:07.990Z,56.62
2022-09-14T23:01:38.550Z,57.76
2022-09-14T23:04:11.197Z,57.92
2022-09-14T23:06:41.786Z,57.49
2022-09-14T23:09:12.759Z,59.21
2022-09-14T23:11:42.174Z,57.71
2022-09-14T23:14:10.242Z,58.25
2022-09-14T23:16:38.277Z,59.21
2022-09-14T23:19:08.152Z,57.58
2022-09-14T23:21:36.290Z,58.59
2022-09-14T23:24:06.265Z,58.95
2022-09-14T23:26:34.533Z,59.26
2022-09-14T23:29:04.684Z,57.38
2022-09-14T23:31:33.736Z,56.59
2022-09-14T23:34:03.651Z,58.49
2022-09-14T23:36:33.340Z,58.04
2022-09-14T23:39:01.963Z,57.05
2022-09-14T23:41:30.035Z,57.93
2022-09-14T23:43:58.202Z,58.22
2022-09-14T23:46:26.719Z,57.94
2022-09-14T23:48:54.797Z,56.35
2022-09-14T23:51:22.780Z,57.68
2022-09-14T23:53:52.252Z,55.87
2022-09-14T23:56:20.294Z,57.34
2022-09-14T23:58:48.268Z,57.26
